Aviation Digital Data Service (ADDS)

Output produced by TAFs form (0958 UTC 23 April 2017)
found at http://www.aviationweather.gov/adds/tafs/
 
METAR text: RJTL 230609Z 07010KT 030V130 9999 FEW030 18/03 Q1015 RMK 1CU030 A3000
Conditions at: RJTL (SHIMOFUSA (JMSDF, JP) observed 0609 UTC 23 April 2017
Temperature: 18.0°C (64°F)
Dewpoint: 3.0°C (37°F) [RH = 37%]
Pressure (altimeter): 29.97 inches Hg (1015.0 mb)
Winds: from the ENE (70 degrees) at 12 MPH (10 knots; 5.2 m/s)
Visibility: 6 or more miles (10+ km)
Ceiling: at least 12,000 feet AGL
Clouds: few clouds at 3000 feet AGL
Weather: no significant weather observed at this time